sensor_id;sensor_type;location;lat;lon;timestamp;P1;durP1;ratioP1;P2;durP2;ratioP2
9801;SDS011;4940;50.900;4.672;2022-12-08T00:00:18;15.60;;;8.00;;
9801;SDS011;4940;50.900;4.672;2022-12-08T00:02:45;14.20;;;8.47;;
9801;SDS011;4940;50.900;4.672;2022-12-08T00:05:13;15.23;;;8.57;;
9801;SDS011;4940;50.900;4.672;2022-12-08T00:07:57;17.80;;;9.37;;
9801;SDS011;4940;50.900;4.672;2022-12-08T00:10:43;15.53;;;8.67;;
9801;SDS011;4940;50.900;4.672;2022-12-08T00:13:11;20.97;;;9.40;;
9801;SDS011;4940;50.900;4.672;2022-12-08T00:15:39;19.75;;;9.45;;
9801;SDS011;4940;50.900;4.672;2022-12-08T00:18:06;18.90;;;10.07;;
9801;SDS011;4940;50.900;4.672;2022-12-08T00:20:33;18.17;;;9.73;;
9801;SDS011;4940;50.900;4.672;2022-12-08T00:23:01;20.70;;;10.00;;
9801;SDS011;4940;50.900;4.672;2022-12-08T00:25:28;19.17;;;10.03;;
9801;SDS011;4940;50.900;4.672;2022-12-08T00:27:56;22.43;;;10.30;;
9801;SDS011;4940;50.900;4.672;2022-12-08T00:30:25;21.60;;;10.97;;
9801;SDS011;4940;50.900;4.672;2022-12-08T00:32:52;20.67;;;9.63;;
9801;SDS011;4940;50.900;4.672;2022-12-08T00:35:20;21.67;;;9.97;;
9801;SDS011;4940;50.900;4.672;2022-12-08T00:37:48;17.83;;;10.00;;
9801;SDS011;4940;50.900;4.672;2022-12-08T00:40:15;24.57;;;11.50;;
9801;SDS011;4940;50.900;4.672;2022-12-08T00:42:42;25.40;;;11.43;;
9801;SDS011;4940;50.900;4.672;2022-12-08T00:45:10;26.43;;;11.07;;
9801;SDS011;4940;50.900;4.672;2022-12-08T00:47:39;20.53;;;10.27;;
9801;SDS011;4940;50.900;4.672;2022-12-08T00:50:06;20.50;;;10.40;;
9801;SDS011;4940;50.900;4.672;2022-12-08T00:52:34;20.13;;;10.63;;
9801;SDS011;4940;50.900;4.672;2022-12-08T00:55:01;22.93;;;10.77;;
9801;SDS011;4940;50.900;4.672;2022-12-08T00:57:29;21.87;;;11.37;;
9801;SDS011;4940;50.900;4.672;2022-12-08T00:59:56;22.23;;;10.37;;
9801;SDS011;4940;50.900;4.672;2022-12-08T01:02:24;27.77;;;11.50;;
9801;SDS011;4940;50.900;4.672;2022-12-08T01:04:53;19.97;;;10.97;;
9801;SDS011;4940;50.900;4.672;2022-12-08T01:07:20;22.37;;;10.93;;
9801;SDS011;4940;50.900;4.672;2022-12-08T01:09:47;30.00;;;12.37;;
9801;SDS011;4940;50.900;4.672;2022-12-08T01:12:15;20.47;;;11.30;;
9801;SDS011;4940;50.900;4.672;2022-12-08T01:14:42;28.23;;;12.07;;
9801;SDS011;4940;50.900;4.672;2022-12-08T01:17:10;24.07;;;10.93;;
9801;SDS011;4940;50.900;4.672;2022-12-08T01:19:37;18.37;;;11.10;;
9801;SDS011;4940;50.900;4.672;2022-12-08T01:22:06;23.40;;;11.10;;
9801;SDS011;4940;50.900;4.672;2022-12-08T01:24:33;17.43;;;10.33;;
9801;SDS011;4940;50.900;4.672;2022-12-08T01:27:01;18.37;;;10.17;;
9801;SDS011;4940;50.900;4.672;2022-12-08T01:29:28;19.57;;;11.07;;
9801;SDS011;4940;50.900;4.672;2022-12-08T01:31:56;22.47;;;11.07;;
9801;SDS011;4940;50.900;4.672;2022-12-08T01:34:23;17.17;;;9.93;;
9801;SDS011;4940;50.900;4.672;2022-12-08T01:36:51;25.10;;;11.50;;
9801;SDS011;4940;50.900;4.672;2022-12-08T01:39:19;24.83;;;10.60;;
9801;SDS011;4940;50.900;4.672;2022-12-08T01:41:46;22.33;;;10.10;;
9801;SDS011;4940;50.900;4.672;2022-12-08T01:47:14;25.03;;;11.00;;
9801;SDS011;4940;50.900;4.672;2022-12-08T01:49:42;21.53;;;11.03;;
9801;SDS011;4940;50.900;4.672;2022-12-08T01:52:10;22.03;;;11.13;;
9801;SDS011;4940;50.900;4.672;2022-12-08T01:54:44;24.63;;;10.77;;
9801;SDS011;4940;50.900;4.672;2022-12-08T01:57:15;23.80;;;9.83;;
9801;SDS011;4940;50.900;4.672;2022-12-08T01:59:47;22.23;;;10.00;;
9801;SDS011;4940;50.900;4.672;2022-12-08T02:02:19;24.23;;;11.17;;
9801;SDS011;4940;50.900;4.672;2022-12-08T02:04:47;19.50;;;10.00;;
9801;SDS011;4940;50.900;4.672;2022-12-08T02:07:14;24.37;;;11.10;;
9801;SDS011;4940;50.900;4.672;2022-12-08T02:09:44;25.27;;;11.10;;
9801;SDS011;4940;50.900;4.672;2022-12-08T02:12:12;24.97;;;10.37;;
9801;SDS011;4940;50.900;4.672;2022-12-08T02:14:39;21.30;;;11.17;;
9801;SDS011;4940;50.900;4.672;2022-12-08T02:17:09;21.07;;;10.90;;
9801;SDS011;4940;50.900;4.672;2022-12-08T02:19:53;20.93;;;11.00;;
9801;SDS011;4940;50.900;4.672;2022-12-08T02:22:44;24.30;;;10.70;;
9801;SDS011;4940;50.900;4.672;2022-12-08T02:25:23;23.23;;;11.27;;
9801;SDS011;4940;50.900;4.672;2022-12-08T02:27:58;22.40;;;11.10;;
9801;SDS011;4940;50.900;4.672;2022-12-08T02:30:35;23.63;;;10.77;;
9801;SDS011;4940;50.900;4.672;2022-12-08T02:33:24;23.67;;;11.73;;
9801;SDS011;4940;50.900;4.672;2022-12-08T02:36:12;22.60;;;11.73;;
9801;SDS011;4940;50.900;4.672;2022-12-08T02:38:46;28.60;;;11.93;;
9801;SDS011;4940;50.900;4.672;2022-12-08T02:41:23;21.13;;;11.07;;
9801;SDS011;4940;50.900;4.672;2022-12-08T02:43:59;22.53;;;11.23;;
9801;SDS011;4940;50.900;4.672;2022-12-08T02:46:32;27.37;;;12.00;;
9801;SDS011;4940;50.900;4.672;2022-12-08T02:49:04;24.30;;;11.00;;
9801;SDS011;4940;50.900;4.672;2022-12-08T02:51:33;24.57;;;11.33;;
9801;SDS011;4940;50.900;4.672;2022-12-08T02:54:00;26.37;;;11.10;;
9801;SDS011;4940;50.900;4.672;2022-12-08T02:56:33;20.50;;;10.93;;
9801;SDS011;4940;50.900;4.672;2022-12-08T02:59:09;18.57;;;10.37;;
9801;SDS011;4940;50.900;4.672;2022-12-08T03:01:52;26.33;;;11.60;;
9801;SDS011;4940;50.900;4.672;2022-12-08T03:04:37;28.97;;;12.23;;
9801;SDS011;4940;50.900;4.672;2022-12-08T03:07:11;31.80;;;12.73;;
9801;SDS011;4940;50.900;4.672;2022-12-08T03:09:47;28.30;;;12.13;;
9801;SDS011;4940;50.900;4.672;2022-12-08T03:12:19;34.77;;;13.43;;
9801;SDS011;4940;50.900;4.672;2022-12-08T03:14:51;24.10;;;11.77;;
9801;SDS011;4940;50.900;4.672;2022-12-08T03:17:22;27.70;;;12.13;;
9801;SDS011;4940;50.900;4.672;2022-12-08T03:19:54;27.50;;;11.87;;
9801;SDS011;4940;50.900;4.672;2022-12-08T03:22:24;27.87;;;11.83;;
9801;SDS011;4940;50.900;4.672;2022-12-08T03:24:52;25.97;;;11.63;;
9801;SDS011;4940;50.900;4.672;2022-12-08T03:27:21;24.37;;;11.00;;
9801;SDS011;4940;50.900;4.672;2022-12-08T03:29:51;27.43;;;10.87;;
9801;SDS011;4940;50.900;4.672;2022-12-08T03:32:21;27.23;;;11.87;;
9801;SDS011;4940;50.900;4.672;2022-12-08T03:34:54;22.57;;;10.83;;
9801;SDS011;4940;50.900;4.672;2022-12-08T03:37:23;27.90;;;11.40;;
9801;SDS011;4940;50.900;4.672;2022-12-08T03:39:50;21.13;;;10.20;;
9801;SDS011;4940;50.900;4.672;2022-12-08T03:42:18;22.17;;;10.53;;
9801;SDS011;4940;50.900;4.672;2022-12-08T03:44:45;24.40;;;11.60;;
9801;SDS011;4940;50.900;4.672;2022-12-08T03:47:12;21.97;;;10.50;;
9801;SDS011;4940;50.900;4.672;2022-12-08T03:49:40;25.23;;;10.47;;
9801;SDS011;4940;50.900;4.672;2022-12-08T03:52:08;27.27;;;11.30;;
9801;SDS011;4940;50.900;4.672;2022-12-08T03:54:36;21.17;;;10.67;;
9801;SDS011;4940;50.900;4.672;2022-12-08T03:57:03;23.10;;;10.43;;
9801;SDS011;4940;50.900;4.672;2022-12-08T03:59:31;21.37;;;11.10;;
9801;SDS011;4940;50.900;4.672;2022-12-08T04:01:58;29.07;;;11.33;;
9801;SDS011;4940;50.900;4.672;2022-12-08T04:04:25;21.07;;;11.37;;
9801;SDS011;4940;50.900;4.672;2022-12-08T04:06:53;27.20;;;11.33;;
9801;SDS011;4940;50.900;4.672;2022-12-08T04:09:22;20.07;;;10.53;;
9801;SDS011;4940;50.900;4.672;2022-12-08T04:11:49;27.90;;;11.60;;
9801;SDS011;4940;50.900;4.672;2022-12-08T04:14:17;27.43;;;12.63;;
9801;SDS011;4940;50.900;4.672;2022-12-08T04:16:44;24.27;;;13.13;;
9801;SDS011;4940;50.900;4.672;2022-12-08T04:19:11;23.50;;;12.27;;
9801;SDS011;4940;50.900;4.672;2022-12-08T04:21:39;27.47;;;12.50;;
9801;SDS011;4940;50.900;4.672;2022-12-08T04:24:07;26.53;;;12.57;;
9801;SDS011;4940;50.900;4.672;2022-12-08T04:26:36;27.43;;;12.27;;
9801;SDS011;4940;50.900;4.672;2022-12-08T04:29:03;27.90;;;12.70;;
9801;SDS011;4940;50.900;4.672;2022-12-08T04:31:31;27.13;;;12.47;;
9801;SDS011;4940;50.900;4.672;2022-12-08T04:33:58;25.07;;;11.33;;
9801;SDS011;4940;50.900;4.672;2022-12-08T04:36:26;25.50;;;11.87;;
9801;SDS011;4940;50.900;4.672;2022-12-08T04:38:53;23.90;;;11.70;;
9801;SDS011;4940;50.900;4.672;2022-12-08T04:41:20;22.67;;;11.30;;
9801;SDS011;4940;50.900;4.672;2022-12-08T04:43:49;25.13;;;11.33;;
9801;SDS011;4940;50.900;4.672;2022-12-08T04:46:16;20.53;;;11.07;;
9801;SDS011;4940;50.900;4.672;2022-12-08T04:48:44;16.27;;;9.60;;
9801;SDS011;4940;50.900;4.672;2022-12-08T04:51:14;20.87;;;10.80;;
9801;SDS011;4940;50.900;4.672;2022-12-08T04:53:42;20.00;;;10.03;;
9801;SDS011;4940;50.900;4.672;2022-12-08T04:56:10;18.70;;;10.00;;
9801;SDS011;4940;50.900;4.672;2022-12-08T04:58:38;15.73;;;9.37;;
9801;SDS011;4940;50.900;4.672;2022-12-08T05:01:07;22.20;;;10.23;;
9801;SDS011;4940;50.900;4.672;2022-12-08T05:03:34;19.50;;;9.33;;
9801;SDS011;4940;50.900;4.672;2022-12-08T05:06:02;19.40;;;9.27;;
9801;SDS011;4940;50.900;4.672;2022-12-08T05:08:30;21.97;;;9.30;;
9801;SDS011;4940;50.900;4.672;2022-12-08T05:11:01;16.43;;;8.67;;
9801;SDS011;4940;50.900;4.672;2022-12-08T05:13:29;18.57;;;8.20;;
9801;SDS011;4940;50.900;4.672;2022-12-08T05:16:01;14.47;;;8.10;;
9801;SDS011;4940;50.900;4.672;2022-12-08T05:18:30;15.77;;;9.07;;
9801;SDS011;4940;50.900;4.672;2022-12-08T05:20:58;16.43;;;9.17;;
9801;SDS011;4940;50.900;4.672;2022-12-08T05:23:35;18.67;;;9.10;;
9801;SDS011;4940;50.900;4.672;2022-12-08T05:26:02;14.93;;;8.63;;
9801;SDS011;4940;50.900;4.672;2022-12-08T05:28:33;18.90;;;8.47;;
9801;SDS011;4940;50.900;4.672;2022-12-08T05:31:04;16.67;;;8.90;;
9801;SDS011;4940;50.900;4.672;2022-12-08T05:33:33;19.90;;;10.43;;
9801;SDS011;4940;50.900;4.672;2022-12-08T05:36:00;22.13;;;10.50;;
9801;SDS011;4940;50.900;4.672;2022-12-08T05:38:27;24.13;;;10.53;;
9801;SDS011;4940;50.900;4.672;2022-12-08T05:40:55;22.23;;;10.93;;
9801;SDS011;4940;50.900;4.672;2022-12-08T05:43:22;22.37;;;11.13;;
9801;SDS011;4940;50.900;4.672;2022-12-08T05:45:50;27.87;;;11.77;;
9801;SDS011;4940;50.900;4.672;2022-12-08T05:48:17;19.83;;;10.47;;
9801;SDS011;4940;50.900;4.672;2022-12-08T05:50:46;30.00;;;12.13;;
9801;SDS011;4940;50.900;4.672;2022-12-08T05:53:14;24.73;;;12.07;;
9801;SDS011;4940;50.900;4.672;2022-12-08T05:55:41;22.47;;;11.53;;
9801;SDS011;4940;50.900;4.672;2022-12-08T05:58:10;25.83;;;10.67;;
9801;SDS011;4940;50.900;4.672;2022-12-08T06:00:40;19.47;;;9.77;;
9801;SDS011;4940;50.900;4.672;2022-12-08T06:03:07;21.63;;;11.43;;
9801;SDS011;4940;50.900;4.672;2022-12-08T06:05:37;19.17;;;10.10;;
9801;SDS011;4940;50.900;4.672;2022-12-08T06:08:07;18.40;;;9.00;;
9801;SDS011;4940;50.900;4.672;2022-12-08T06:10:38;21.37;;;9.77;;
9801;SDS011;4940;50.900;4.672;2022-12-08T06:13:06;20.73;;;10.20;;
9801;SDS011;4940;50.900;4.672;2022-12-08T06:15:33;19.87;;;10.20;;
9801;SDS011;4940;50.900;4.672;2022-12-08T06:18:01;23.77;;;9.87;;
9801;SDS011;4940;50.900;4.672;2022-12-08T06:20:29;16.87;;;9.47;;
9801;SDS011;4940;50.900;4.672;2022-12-08T06:22:56;21.77;;;9.93;;
9801;SDS011;4940;50.900;4.672;2022-12-08T06:25:25;18.03;;;9.20;;
9801;SDS011;4940;50.900;4.672;2022-12-08T06:27:52;15.03;;;8.40;;
9801;SDS011;4940;50.900;4.672;2022-12-08T06:30:20;20.60;;;9.63;;
9801;SDS011;4940;50.900;4.672;2022-12-08T06:32:50;18.90;;;9.20;;
9801;SDS011;4940;50.900;4.672;2022-12-08T06:35:17;17.97;;;9.53;;
9801;SDS011;4940;50.900;4.672;2022-12-08T06:37:45;17.90;;;8.63;;
9801;SDS011;4940;50.900;4.672;2022-12-08T06:40:16;19.70;;;9.07;;
9801;SDS011;4940;50.900;4.672;2022-12-08T06:43:00;23.43;;;9.40;;
9801;SDS011;4940;50.900;4.672;2022-12-08T06:45:28;17.37;;;9.37;;
9801;SDS011;4940;50.900;4.672;2022-12-08T06:48:00;20.03;;;8.97;;
9801;SDS011;4940;50.900;4.672;2022-12-08T06:50:27;19.63;;;8.20;;
9801;SDS011;4940;50.900;4.672;2022-12-08T06:52:56;17.47;;;8.73;;
9801;SDS011;4940;50.900;4.672;2022-12-08T06:55:24;23.00;;;9.03;;
9801;SDS011;4940;50.900;4.672;2022-12-08T06:57:51;19.57;;;8.53;;
9801;SDS011;4940;50.900;4.672;2022-12-08T07:00:20;18.43;;;9.40;;
9801;SDS011;4940;50.900;4.672;2022-12-08T07:02:49;20.23;;;8.97;;
9801;SDS011;4940;50.900;4.672;2022-12-08T07:05:16;19.17;;;8.93;;
9801;SDS011;4940;50.900;4.672;2022-12-08T07:07:43;22.30;;;9.70;;
9801;SDS011;4940;50.900;4.672;2022-12-08T07:10:11;22.70;;;10.07;;
9801;SDS011;4940;50.900;4.672;2022-12-08T07:12:38;18.40;;;9.23;;
9801;SDS011;4940;50.900;4.672;2022-12-08T07:15:09;17.77;;;8.00;;
9801;SDS011;4940;50.900;4.672;2022-12-08T07:17:55;20.80;;;8.70;;
9801;SDS011;4940;50.900;4.672;2022-12-08T07:20:30;20.13;;;8.80;;
9801;SDS011;4940;50.900;4.672;2022-12-08T07:22:58;20.53;;;9.07;;
9801;SDS011;4940;50.900;4.672;2022-12-08T07:25:30;21.90;;;7.83;;
9801;SDS011;4940;50.900;4.672;2022-12-08T07:27:58;19.73;;;8.87;;
9801;SDS011;4940;50.900;4.672;2022-12-08T07:30:25;17.57;;;8.33;;
9801;SDS011;4940;50.900;4.672;2022-12-08T07:32:54;20.13;;;8.87;;
9801;SDS011;4940;50.900;4.672;2022-12-08T07:35:22;18.67;;;8.60;;
9801;SDS011;4940;50.900;4.672;2022-12-08T07:37:49;17.17;;;8.70;;
9801;SDS011;4940;50.900;4.672;2022-12-08T07:40:17;21.53;;;8.83;;
9801;SDS011;4940;50.900;4.672;2022-12-08T07:42:44;23.13;;;9.53;;
9801;SDS011;4940;50.900;4.672;2022-12-08T07:45:11;15.70;;;8.23;;
9801;SDS011;4940;50.900;4.672;2022-12-08T07:47:39;16.97;;;8.30;;
9801;SDS011;4940;50.900;4.672;2022-12-08T07:50:08;17.17;;;8.70;;
9801;SDS011;4940;50.900;4.672;2022-12-08T07:52:36;16.87;;;8.30;;
9801;SDS011;4940;50.900;4.672;2022-12-08T07:55:04;15.53;;;7.53;;
9801;SDS011;4940;50.900;4.672;2022-12-08T07:57:32;15.00;;;7.87;;
9801;SDS011;4940;50.900;4.672;2022-12-08T07:59:59;18.20;;;7.77;;
9801;SDS011;4940;50.900;4.672;2022-12-08T08:02:27;19.63;;;8.20;;
9801;SDS011;4940;50.900;4.672;2022-12-08T08:04:57;15.80;;;7.17;;
9801;SDS011;4940;50.900;4.672;2022-12-08T08:07:29;18.83;;;7.97;;
9801;SDS011;4940;50.900;4.672;2022-12-08T08:09:56;20.60;;;7.93;;
9801;SDS011;4940;50.900;4.672;2022-12-08T08:12:24;15.90;;;7.60;;
9801;SDS011;4940;50.900;4.672;2022-12-08T08:15:02;14.60;;;7.40;;
9801;SDS011;4940;50.900;4.672;2022-12-08T08:17:38;20.33;;;8.13;;
9801;SDS011;4940;50.900;4.672;2022-12-08T08:20:08;17.50;;;7.77;;
9801;SDS011;4940;50.900;4.672;2022-12-08T08:22:44;16.43;;;7.77;;
9801;SDS011;4940;50.900;4.672;2022-12-08T08:25:14;17.20;;;8.63;;
9801;SDS011;4940;50.900;4.672;2022-12-08T08:27:51;19.97;;;8.07;;
9801;SDS011;4940;50.900;4.672;2022-12-08T08:30:32;19.73;;;7.87;;
9801;SDS011;4940;50.900;4.672;2022-12-08T08:33:02;15.90;;;8.17;;
9801;SDS011;4940;50.900;4.672;2022-12-08T08:35:30;18.40;;;7.97;;
9801;SDS011;4940;50.900;4.672;2022-12-08T08:38:03;18.93;;;8.87;;
9801;SDS011;4940;50.900;4.672;2022-12-08T08:40:33;16.98;;;7.75;;
9801;SDS011;4940;50.900;4.672;2022-12-08T08:43:04;18.20;;;8.47;;
9801;SDS011;4940;50.900;4.672;2022-12-08T08:45:50;16.90;;;8.17;;
9801;SDS011;4940;50.900;4.672;2022-12-08T08:48:35;19.67;;;9.20;;
9801;SDS011;4940;50.900;4.672;2022-12-08T08:51:15;24.93;;;9.30;;
9801;SDS011;4940;50.900;4.672;2022-12-08T08:53:45;20.23;;;8.90;;
9801;SDS011;4940;50.900;4.672;2022-12-08T08:56:30;19.30;;;9.77;;
9801;SDS011;4940;50.900;4.672;2022-12-08T08:59:06;19.77;;;9.83;;
9801;SDS011;4940;50.900;4.672;2022-12-08T09:01:43;21.23;;;9.17;;
9801;SDS011;4940;50.900;4.672;2022-12-08T09:04:30;20.77;;;9.50;;
9801;SDS011;4940;50.900;4.672;2022-12-08T09:07:11;19.77;;;8.93;;
9801;SDS011;4940;50.900;4.672;2022-12-08T09:10:06;20.37;;;9.63;;
9801;SDS011;4940;50.900;4.672;2022-12-08T09:12:40;23.37;;;10.43;;
9801;SDS011;4940;50.900;4.672;2022-12-08T09:15:36;20.37;;;10.13;;
9801;SDS011;4940;50.900;4.672;2022-12-08T09:18:24;19.90;;;10.07;;
9801;SDS011;4940;50.900;4.672;2022-12-08T09:24:14;23.33;;;9.67;;
9801;SDS011;4940;50.900;4.672;2022-12-08T09:26:58;19.73;;;9.83;;
9801;SDS011;4940;50.900;4.672;2022-12-08T09:32:50;19.73;;;10.80;;
9801;SDS011;4940;50.900;4.672;2022-12-08T09:35:28;27.30;;;11.03;;
9801;SDS011;4940;50.900;4.672;2022-12-08T09:38:04;27.20;;;10.97;;
9801;SDS011;4940;50.900;4.672;2022-12-08T09:40:47;22.83;;;10.40;;
9801;SDS011;4940;50.900;4.672;2022-12-08T09:43:54;23.00;;;10.67;;
9801;SDS011;4940;50.900;4.672;2022-12-08T09:46:55;22.87;;;11.27;;
9801;SDS011;4940;50.900;4.672;2022-12-08T09:49:27;24.37;;;10.20;;
9801;SDS011;4940;50.900;4.672;2022-12-08T09:52:19;23.53;;;10.93;;
9801;SDS011;4940;50.900;4.672;2022-12-08T09:54:48;21.87;;;10.53;;
9801;SDS011;4940;50.900;4.672;2022-12-08T09:57:19;28.67;;;11.00;;
9801;SDS011;4940;50.900;4.672;2022-12-08T10:00:03;23.47;;;10.70;;
9801;SDS011;4940;50.900;4.672;2022-12-08T10:02:31;21.80;;;11.10;;
9801;SDS011;4940;50.900;4.672;2022-12-08T10:05:11;19.93;;;9.97;;
9801;SDS011;4940;50.900;4.672;2022-12-08T10:10:32;24.77;;;10.45;;
9801;SDS011;4940;50.900;4.672;2022-12-08T10:13:10;22.60;;;10.43;;
9801;SDS011;4940;50.900;4.672;2022-12-08T10:15:43;22.60;;;10.67;;
9801;SDS011;4940;50.900;4.672;2022-12-08T10:18:34;23.80;;;11.20;;
9801;SDS011;4940;50.900;4.672;2022-12-08T10:24:00;19.50;;;9.87;;
9801;SDS011;4940;50.900;4.672;2022-12-08T10:26:31;22.07;;;10.53;;
9801;SDS011;4940;50.900;4.672;2022-12-08T10:29:01;23.43;;;10.07;;
9801;SDS011;4940;50.900;4.672;2022-12-08T10:31:39;21.57;;;10.40;;
9801;SDS011;4940;50.900;4.672;2022-12-08T10:34:34;22.70;;;10.03;;
9801;SDS011;4940;50.900;4.672;2022-12-08T10:40:09;21.03;;;10.13;;
9801;SDS011;4940;50.900;4.672;2022-12-08T10:42:49;26.13;;;9.70;;
9801;SDS011;4940;50.900;4.672;2022-12-08T10:45:42;24.27;;;10.17;;
9801;SDS011;4940;50.900;4.672;2022-12-08T10:48:18;20.83;;;9.70;;
9801;SDS011;4940;50.900;4.672;2022-12-08T10:50:56;20.50;;;10.23;;
9801;SDS011;4940;50.900;4.672;2022-12-08T10:53:45;18.73;;;8.98;;
9801;SDS011;4940;50.900;4.672;2022-12-08T10:56:36;21.17;;;9.73;;
9801;SDS011;4940;50.900;4.672;2022-12-08T10:59:40;22.70;;;10.20;;
9801;SDS011;4940;50.900;4.672;2022-12-08T11:02:15;17.20;;;8.53;;
9801;SDS011;4940;50.900;4.672;2022-12-08T11:05:15;17.90;;;8.83;;
9801;SDS011;4940;50.900;4.672;2022-12-08T11:08:12;22.20;;;9.23;;
9801;SDS011;4940;50.900;4.672;2022-12-08T11:11:08;15.33;;;8.03;;
9801;SDS011;4940;50.900;4.672;2022-12-08T11:13:39;16.67;;;8.20;;
9801;SDS011;4940;50.900;4.672;2022-12-08T11:16:10;20.10;;;8.43;;
9801;SDS011;4940;50.900;4.672;2022-12-08T11:19:02;20.63;;;9.23;;
9801;SDS011;4940;50.900;4.672;2022-12-08T11:21:36;17.73;;;8.70;;
9801;SDS011;4940;50.900;4.672;2022-12-08T11:24:28;22.67;;;9.07;;
9801;SDS011;4940;50.900;4.672;2022-12-08T11:27:04;22.47;;;9.77;;
9801;SDS011;4940;50.900;4.672;2022-12-08T11:29:46;20.23;;;9.03;;
9801;SDS011;4940;50.900;4.672;2022-12-08T11:32:36;20.00;;;9.15;;
9801;SDS011;4940;50.900;4.672;2022-12-08T11:35:16;20.03;;;9.47;;
9801;SDS011;4940;50.900;4.672;2022-12-08T11:38:02;19.43;;;10.00;;
9801;SDS011;4940;50.900;4.672;2022-12-08T11:40:34;24.50;;;9.73;;
9801;SDS011;4940;50.900;4.672;2022-12-08T11:43:13;24.83;;;10.20;;
9801;SDS011;4940;50.900;4.672;2022-12-08T11:46:40;19.67;;;9.50;;
9801;SDS011;4940;50.900;4.672;2022-12-08T11:49:21;18.50;;;8.20;;
9801;SDS011;4940;50.900;4.672;2022-12-08T11:51:55;16.77;;;8.30;;
9801;SDS011;4940;50.900;4.672;2022-12-08T11:54:32;15.77;;;8.23;;
9801;SDS011;4940;50.900;4.672;2022-12-08T11:57:04;16.92;;;7.88;;
9801;SDS011;4940;50.900;4.672;2022-12-08T11:59:40;13.07;;;7.28;;
9801;SDS011;4940;50.900;4.672;2022-12-08T12:02:41;20.60;;;7.82;;
9801;SDS011;4940;50.900;4.672;2022-12-08T12:05:30;13.77;;;7.22;;
9801;SDS011;4940;50.900;4.672;2022-12-08T12:08:04;16.83;;;6.82;;
9801;SDS011;4940;50.900;4.672;2022-12-08T12:10:48;19.77;;;7.30;;
9801;SDS011;4940;50.900;4.672;2022-12-08T12:13:31;12.32;;;6.70;;
9801;SDS011;4940;50.900;4.672;2022-12-08T12:19:20;10.27;;;6.10;;
9801;SDS011;4940;50.900;4.672;2022-12-08T12:21:49;15.05;;;7.28;;
9801;SDS011;4940;50.900;4.672;2022-12-08T12:24:18;16.98;;;7.07;;
9801;SDS011;4940;50.900;4.672;2022-12-08T12:27:14;14.15;;;6.78;;
9801;SDS011;4940;50.900;4.672;2022-12-08T12:29:56;15.25;;;7.65;;
9801;SDS011;4940;50.900;4.672;2022-12-08T12:32:39;14.15;;;7.10;;
9801;SDS011;4940;50.900;4.672;2022-12-08T12:38:06;13.07;;;6.45;;
9801;SDS011;4940;50.900;4.672;2022-12-08T12:40:57;14.80;;;6.07;;
9801;SDS011;4940;50.900;4.672;2022-12-08T12:43:28;13.05;;;5.93;;
9801;SDS011;4940;50.900;4.672;2022-12-08T12:53:03;10.93;;;6.32;;
9801;SDS011;4940;50.900;4.672;2022-12-08T13:04:07;8.82;;;5.10;;
9801;SDS011;4940;50.900;4.672;2022-12-08T13:06:40;13.55;;;5.60;;
9801;SDS011;4940;50.900;4.672;2022-12-08T13:09:19;13.57;;;5.85;;
9801;SDS011;4940;50.900;4.672;2022-12-08T13:11:50;14.30;;;6.07;;
9801;SDS011;4940;50.900;4.672;2022-12-08T13:14:26;11.93;;;6.40;;
9801;SDS011;4940;50.900;4.672;2022-12-08T13:16:56;14.27;;;6.45;;
9801;SDS011;4940;50.900;4.672;2022-12-08T13:19:27;11.88;;;6.03;;
9801;SDS011;4940;50.900;4.672;2022-12-08T13:21:58;16.17;;;6.50;;
9801;SDS011;4940;50.900;4.672;2022-12-08T13:24:27;10.05;;;6.20;;
9801;SDS011;4940;50.900;4.672;2022-12-08T13:33:02;12.95;;;5.75;;
9801;SDS011;4940;50.900;4.672;2022-12-08T13:35:35;12.20;;;6.88;;
9801;SDS011;4940;50.900;4.672;2022-12-08T13:38:08;12.35;;;5.80;;
9801;SDS011;4940;50.900;4.672;2022-12-08T13:40:41;14.10;;;6.28;;
9801;SDS011;4940;50.900;4.672;2022-12-08T13:43:09;11.65;;;6.30;;
9801;SDS011;4940;50.900;4.672;2022-12-08T13:45:43;16.73;;;6.18;;
9801;SDS011;4940;50.900;4.672;2022-12-08T13:48:16;14.37;;;6.30;;
9801;SDS011;4940;50.900;4.672;2022-12-08T13:50:51;10.77;;;5.55;;
9801;SDS011;4940;50.900;4.672;2022-12-08T13:53:21;18.55;;;6.63;;
9801;SDS011;4940;50.900;4.672;2022-12-08T13:55:51;10.27;;;6.00;;
9801;SDS011;4940;50.900;4.672;2022-12-08T13:58:23;11.73;;;5.80;;
9801;SDS011;4940;50.900;4.672;2022-12-08T14:00:56;12.73;;;6.47;;
9801;SDS011;4940;50.900;4.672;2022-12-08T14:03:29;14.27;;;6.20;;
9801;SDS011;4940;50.900;4.672;2022-12-08T14:05:57;11.30;;;5.90;;
9801;SDS011;4940;50.900;4.672;2022-12-08T14:08:28;11.10;;;6.00;;
9801;SDS011;4940;50.900;4.672;2022-12-08T14:10:59;12.02;;;6.15;;
9801;SDS011;4940;50.900;4.672;2022-12-08T14:16:14;4.85;;;2.65;;
9801;SDS011;4940;50.900;4.672;2022-12-08T14:21:50;5.95;;;2.00;;
9801;SDS011;4940;50.900;4.672;2022-12-08T14:24:22;3.55;;;1.92;;
9801;SDS011;4940;50.900;4.672;2022-12-08T14:26:51;4.17;;;1.70;;
9801;SDS011;4940;50.900;4.672;2022-12-08T14:29:41;2.17;;;1.30;;
9801;SDS011;4940;50.900;4.672;2022-12-08T14:32:23;1.97;;;1.10;;
9801;SDS011;4940;50.900;4.672;2022-12-08T14:34:55;3.03;;;1.25;;
9801;SDS011;4940;50.900;4.672;2022-12-08T14:37:25;1.42;;;1.17;;
9801;SDS011;4940;50.900;4.672;2022-12-08T14:39:56;1.98;;;1.50;;
9801;SDS011;4940;50.900;4.672;2022-12-08T14:42:26;2.60;;;1.60;;
9801;SDS011;4940;50.900;4.672;2022-12-08T14:44:55;2.13;;;1.60;;
9801;SDS011;4940;50.900;4.672;2022-12-08T14:47:29;3.63;;;1.83;;
9801;SDS011;4940;50.900;4.672;2022-12-08T14:50:00;2.28;;;1.42;;
9801;SDS011;4940;50.900;4.672;2022-12-08T14:52:29;3.38;;;1.40;;
9801;SDS011;4940;50.900;4.672;2022-12-08T14:54:59;1.65;;;1.17;;
9801;SDS011;4940;50.900;4.672;2022-12-08T14:57:29;2.10;;;1.10;;
9801;SDS011;4940;50.900;4.672;2022-12-08T15:00:06;3.00;;;1.10;;
9801;SDS011;4940;50.900;4.672;2022-12-08T15:02:39;3.33;;;0.90;;
9801;SDS011;4940;50.900;4.672;2022-12-08T15:05:11;1.23;;;0.90;;
9801;SDS011;4940;50.900;4.672;2022-12-08T15:07:45;2.15;;;0.93;;
9801;SDS011;4940;50.900;4.672;2022-12-08T15:10:18;0.83;;;0.70;;
9801;SDS011;4940;50.900;4.672;2022-12-08T15:13:01;2.42;;;1.00;;
9801;SDS011;4940;50.900;4.672;2022-12-08T15:15:40;2.10;;;1.10;;
9801;SDS011;4940;50.900;4.672;2022-12-08T15:18:14;3.70;;;1.38;;
9801;SDS011;4940;50.900;4.672;2022-12-08T15:20:43;2.85;;;2.05;;
9801;SDS011;4940;50.900;4.672;2022-12-08T15:23:18;2.05;;;1.60;;
9801;SDS011;4940;50.900;4.672;2022-12-08T15:25:51;3.97;;;1.58;;
9801;SDS011;4940;50.900;4.672;2022-12-08T15:28:20;2.63;;;1.80;;
9801;SDS011;4940;50.900;4.672;2022-12-08T15:30:49;4.87;;;1.67;;
9801;SDS011;4940;50.900;4.672;2022-12-08T15:33:18;3.67;;;1.77;;
9801;SDS011;4940;50.900;4.672;2022-12-08T15:35:45;2.97;;;1.60;;
9801;SDS011;4940;50.900;4.672;2022-12-08T15:38:21;4.33;;;1.70;;
9801;SDS011;4940;50.900;4.672;2022-12-08T15:40:50;4.23;;;1.87;;
9801;SDS011;4940;50.900;4.672;2022-12-08T15:43:17;1.73;;;1.60;;
9801;SDS011;4940;50.900;4.672;2022-12-08T15:45:45;3.50;;;1.67;;
9801;SDS011;4940;50.900;4.672;2022-12-08T15:48:20;3.70;;;1.80;;
9801;SDS011;4940;50.900;4.672;2022-12-08T15:51:11;2.47;;;1.73;;
9801;SDS011;4940;50.900;4.672;2022-12-08T15:53:38;2.40;;;1.70;;
9801;SDS011;4940;50.900;4.672;2022-12-08T15:56:06;3.53;;;1.87;;
9801;SDS011;4940;50.900;4.672;2022-12-08T15:58:34;4.00;;;2.10;;
9801;SDS011;4940;50.900;4.672;2022-12-08T16:01:02;4.67;;;2.13;;
9801;SDS011;4940;50.900;4.672;2022-12-08T16:03:31;2.57;;;1.70;;
9801;SDS011;4940;50.900;4.672;2022-12-08T16:05:59;4.63;;;2.60;;
9801;SDS011;4940;50.900;4.672;2022-12-08T16:08:28;5.00;;;2.80;;
9801;SDS011;4940;50.900;4.672;2022-12-08T16:11:00;4.90;;;2.80;;
9801;SDS011;4940;50.900;4.672;2022-12-08T16:13:44;4.77;;;2.30;;
9801;SDS011;4940;50.900;4.672;2022-12-08T16:16:53;4.70;;;2.70;;
9801;SDS011;4940;50.900;4.672;2022-12-08T16:19:40;4.55;;;3.25;;
9801;SDS011;4940;50.900;4.672;2022-12-08T16:22:16;4.63;;;3.23;;
9801;SDS011;4940;50.900;4.672;2022-12-08T16:25:04;8.65;;;3.90;;